createdAt,value
2023-10-15T00:00:30.404Z,26.00
2023-10-15T00:02:57.649Z,26.60
2023-10-15T00:05:29.019Z,26.20
2023-10-15T00:07:59.370Z,26.20
2023-10-15T00:10:28.209Z,25.30
2023-10-15T00:12:57.137Z,25.60
2023-10-15T00:15:27.213Z,26.20
2023-10-15T00:18:02.415Z,26.00
2023-10-15T00:20:37.239Z,26.10
2023-10-15T00:23:08.401Z,25.30
2023-10-15T00:25:37.883Z,25.10
2023-10-15T00:28:07.542Z,24.90
2023-10-15T00:30:35.905Z,25.70
2023-10-15T00:33:17.823Z,25.20
2023-10-15T00:35:48.709Z,26.20
2023-10-15T00:38:19.936Z,26.10
2023-10-15T00:40:53.390Z,26.10
2023-10-15T00:43:21.504Z,25.90
2023-10-15T00:45:49.056Z,26.30
2023-10-15T00:48:29.390Z,26.50
2023-10-15T00:50:57.503Z,26.40
2023-10-15T00:53:29.815Z,26.20
2023-10-15T00:56:11.556Z,25.30
2023-10-15T00:58:38.626Z,25.10
2023-10-15T01:01:19.158Z,25.80
2023-10-15T01:03:57.376Z,25.80
2023-10-15T01:06:35.675Z,25.50
2023-10-15T01:09:11.719Z,25.60
2023-10-15T01:11:45.697Z,26.20
2023-10-15T01:14:13.423Z,26.20
2023-10-15T01:16:41.799Z,24.90
2023-10-15T01:19:09.704Z,24.90
2023-10-15T01:21:44.708Z,25.10
2023-10-15T01:24:11.975Z,25.00
2023-10-15T01:26:40.522Z,24.80
2023-10-15T01:29:07.864Z,25.40
2023-10-15T01:31:52.512Z,25.70
2023-10-15T01:34:22.958Z,25.70
2023-10-15T01:36:50.717Z,25.80
2023-10-15T01:39:23.637Z,24.70
2023-10-15T01:41:51.809Z,24.60
2023-10-15T01:44:21.653Z,24.80
2023-10-15T01:47:03.823Z,26.00
2023-10-15T01:49:35.075Z,26.50
2023-10-15T01:52:10.231Z,27.10
2023-10-15T01:54:47.272Z,26.90
2023-10-15T01:57:19.698Z,26.10
2023-10-15T01:59:47.277Z,25.10
2023-10-15T02:02:19.666Z,24.80
2023-10-15T02:04:47.097Z,25.50
2023-10-15T02:07:18.896Z,24.70
2023-10-15T02:09:45.895Z,24.80
2023-10-15T02:12:14.793Z,25.70
2023-10-15T02:14:43.896Z,25.40
2023-10-15T02:17:14.893Z,25.70
2023-10-15T02:19:42.529Z,26.10
2023-10-15T02:22:16.111Z,26.40
2023-10-15T02:24:49.176Z,26.10
2023-10-15T02:27:26.866Z,26.00
2023-10-15T02:29:53.874Z,26.60
2023-10-15T02:32:22.979Z,26.40
2023-10-15T02:34:53.733Z,26.10
2023-10-15T02:37:25.189Z,26.00
2023-10-15T02:39:52.437Z,26.10
2023-10-15T02:42:32.549Z,26.20
2023-10-15T02:45:00.280Z,25.00
2023-10-15T02:47:32.830Z,24.70
2023-10-15T02:50:04.686Z,24.90
2023-10-15T02:52:48.530Z,24.80
2023-10-15T02:55:18.015Z,25.30
2023-10-15T02:57:45.857Z,25.50
2023-10-15T03:00:15.213Z,26.40
2023-10-15T03:02:45.975Z,25.90
2023-10-15T03:05:17.037Z,25.30
2023-10-15T03:07:44.780Z,25.40
2023-10-15T03:10:14.230Z,25.20
2023-10-15T03:12:44.915Z,26.10
2023-10-15T03:15:16.531Z,26.30
2023-10-15T03:17:44.702Z,26.20
2023-10-15T03:20:33.205Z,25.90
2023-10-15T03:23:00.701Z,25.90
2023-10-15T03:25:27.997Z,26.50
2023-10-15T03:28:01.779Z,26.20
2023-10-15T03:30:29.345Z,26.50
2023-10-15T03:33:02.154Z,25.90
2023-10-15T03:35:35.059Z,25.20
2023-10-15T03:38:06.345Z,24.70
2023-10-15T03:40:48.346Z,25.50
2023-10-15T03:43:21.958Z,25.30
2023-10-15T03:45:52.428Z,25.80
2023-10-15T03:48:29.756Z,25.80
2023-10-15T03:50:58.487Z,25.90
2023-10-15T03:53:29.629Z,25.80
2023-10-15T03:56:02.705Z,25.40
2023-10-15T03:58:30.023Z,25.50
2023-10-15T04:01:13.141Z,26.00
2023-10-15T04:03:45.970Z,25.80
2023-10-15T04:06:17.382Z,27.00
2023-10-15T04:09:03.142Z,27.60
2023-10-15T04:11:34.868Z,27.80
2023-10-15T04:14:05.577Z,28.40
2023-10-15T04:16:32.980Z,28.20
2023-10-15T04:19:01.951Z,28.30
2023-10-15T04:21:29.056Z,28.20
2023-10-15T04:23:57.951Z,27.60
2023-10-15T04:26:30.423Z,28.80
2023-10-15T04:28:58.108Z,28.40
2023-10-15T04:31:25.342Z,27.50
2023-10-15T04:33:54.408Z,27.40
2023-10-15T04:36:21.534Z,28.20
2023-10-15T04:38:49.274Z,28.40
2023-10-15T04:41:25.441Z,27.20
2023-10-15T04:43:52.423Z,27.10
2023-10-15T04:46:20.468Z,27.20
2023-10-15T04:48:51.892Z,27.60
2023-10-15T04:51:20.135Z,28.20
2023-10-15T04:53:49.778Z,27.40
2023-10-15T04:56:16.939Z,27.30
2023-10-15T04:58:44.650Z,27.80
2023-10-15T05:01:12.790Z,27.00
2023-10-15T05:03:40.316Z,26.20
2023-10-15T05:06:12.179Z,26.20
2023-10-15T05:08:41.993Z,26.90
2023-10-15T05:11:10.563Z,26.70
2023-10-15T05:13:37.858Z,27.40
2023-10-15T05:16:05.525Z,27.80
2023-10-15T05:18:34.290Z,27.90
2023-10-15T05:21:04.725Z,27.90
2023-10-15T05:23:31.789Z,28.20
2023-10-15T05:25:58.910Z,29.20
2023-10-15T05:28:28.024Z,28.60
2023-10-15T05:30:55.383Z,28.60
2023-10-15T05:33:22.423Z,28.50
2023-10-15T05:35:49.481Z,28.40
2023-10-15T05:38:18.549Z,28.20
2023-10-15T05:40:46.289Z,28.20
2023-10-15T05:43:13.920Z,27.70
2023-10-15T05:45:40.874Z,27.80
2023-10-15T05:48:08.855Z,27.40
2023-10-15T05:50:35.874Z,26.60
2023-10-15T05:55:30.570Z,27.20
2023-10-15T05:57:59.790Z,27.50
2023-10-15T06:00:29.932Z,27.40
2023-10-15T06:02:58.809Z,27.50
2023-10-15T06:05:26.079Z,27.50
2023-10-15T06:07:56.251Z,27.30
2023-10-15T06:10:24.014Z,27.50
2023-10-15T06:12:51.273Z,27.90
2023-10-15T06:15:20.704Z,28.10
2023-10-15T06:17:49.905Z,28.90
2023-10-15T06:20:17.328Z,29.80
2023-10-15T06:22:47.270Z,30.20
2023-10-15T06:25:18.095Z,30.90
2023-10-15T06:27:46.259Z,30.30
2023-10-15T06:30:20.059Z,29.40
2023-10-15T06:32:51.418Z,30.40
2023-10-15T06:35:21.978Z,30.60
2023-10-15T06:37:53.651Z,30.10
2023-10-15T06:40:24.191Z,30.20
2023-10-15T06:42:53.682Z,30.00
2023-10-15T06:45:21.733Z,30.10
2023-10-15T06:47:54.867Z,31.30
2023-10-15T06:50:26.541Z,32.10
2023-10-15T06:52:55.258Z,31.60
2023-10-15T06:55:22.862Z,30.40
2023-10-15T06:57:50.823Z,31.10
2023-10-15T07:00:25.545Z,31.90
2023-10-15T07:02:54.545Z,31.60
2023-10-15T07:05:25.053Z,31.70
2023-10-15T07:07:52.901Z,31.90
2023-10-15T07:10:20.047Z,31.10
2023-10-15T07:12:49.525Z,30.00
2023-10-15T07:15:17.875Z,29.40
2023-10-15T07:17:46.397Z,28.30
2023-10-15T07:20:19.790Z,27.70
2023-10-15T07:22:49.431Z,27.50
2023-10-15T07:25:20.588Z,27.70
2023-10-15T07:27:51.046Z,28.10
2023-10-15T07:30:22.605Z,28.70
2023-10-15T07:33:00.559Z,29.00
2023-10-15T07:35:29.772Z,28.70
2023-10-15T07:38:04.268Z,29.40
2023-10-15T07:40:34.723Z,29.60
2023-10-15T07:43:03.830Z,30.20
2023-10-15T07:45:32.910Z,31.50
2023-10-15T07:48:03.866Z,31.00
2023-10-15T07:50:33.098Z,30.00
2023-10-15T07:53:02.562Z,28.90
2023-10-15T07:55:29.644Z,27.70
2023-10-15T07:57:56.619Z,28.00
2023-10-15T08:00:27.995Z,28.40
2023-10-15T08:03:00.087Z,28.50
2023-10-15T08:05:35.523Z,27.70
2023-10-15T08:08:05.692Z,27.70
2023-10-15T08:10:35.352Z,28.50
2023-10-15T08:13:03.433Z,29.20
2023-10-15T08:15:30.638Z,28.90
2023-10-15T08:17:58.830Z,28.50
2023-10-15T08:20:26.086Z,29.30
2023-10-15T08:22:53.378Z,29.60
2023-10-15T08:25:23.004Z,29.60
2023-10-15T08:27:50.710Z,29.60
2023-10-15T08:30:18.977Z,30.50
2023-10-15T08:32:47.737Z,29.50
2023-10-15T08:35:16.134Z,29.00
2023-10-15T08:37:44.424Z,29.40
2023-10-15T08:40:19.500Z,29.20
2023-10-15T08:43:07.377Z,30.60
2023-10-15T08:45:36.831Z,30.60
2023-10-15T08:48:07.532Z,30.30
2023-10-15T08:50:39.970Z,29.70
2023-10-15T08:53:10.643Z,30.20
2023-10-15T08:55:41.349Z,30.30
2023-10-15T08:58:10.804Z,30.40
2023-10-15T09:00:40.776Z,30.90
2023-10-15T09:03:08.089Z,31.80
2023-10-15T09:05:38.611Z,30.50
2023-10-15T09:08:08.767Z,29.60
2023-10-15T09:10:38.454Z,30.10
2023-10-15T09:13:06.815Z,30.70
2023-10-15T09:15:33.994Z,31.00
2023-10-15T09:18:01.437Z,30.70
2023-10-15T09:20:29.298Z,30.40
2023-10-15T09:23:02.926Z,29.80
2023-10-15T09:25:31.225Z,30.80
2023-10-15T09:27:59.980Z,31.30
2023-10-15T09:30:31.521Z,31.70
2023-10-15T09:32:58.820Z,32.80
2023-10-15T09:35:26.889Z,33.50
2023-10-15T09:37:56.969Z,32.30
2023-10-15T09:40:25.787Z,32.20
2023-10-15T09:42:58.631Z,32.20
2023-10-15T09:45:26.934Z,31.60
2023-10-15T09:48:01.737Z,31.90
2023-10-15T09:50:33.535Z,31.30
2023-10-15T09:53:10.975Z,31.50
2023-10-15T09:55:40.470Z,31.30
2023-10-15T09:58:10.392Z,31.60
2023-10-15T10:00:48.391Z,31.60
2023-10-15T10:03:31.860Z,31.80
2023-10-15T10:06:33.251Z,31.80
2023-10-15T10:09:17.793Z,32.70
2023-10-15T10:12:17.007Z,32.80
2023-10-15T10:15:03.125Z,31.10
2023-10-15T10:17:32.397Z,30.00
2023-10-15T10:20:11.818Z,30.90
2023-10-15T10:22:44.204Z,32.10
2023-10-15T10:25:32.553Z,32.40
2023-10-15T10:28:17.630Z,32.40
2023-10-15T10:30:57.228Z,30.90
2023-10-15T10:33:43.923Z,30.40
2023-10-15T10:36:21.899Z,29.80
2023-10-15T10:39:01.345Z,29.60
2023-10-15T10:41:40.769Z,30.40
2023-10-15T10:44:22.985Z,30.90
2023-10-15T10:46:55.893Z,31.80
2023-10-15T10:49:36.828Z,32.00
2023-10-15T10:52:17.227Z,32.30
2023-10-15T10:54:47.591Z,31.00
2023-10-15T10:57:19.614Z,30.40
2023-10-15T10:59:47.740Z,30.90
2023-10-15T11:02:17.251Z,30.70
2023-10-15T11:04:45.459Z,30.30
2023-10-15T11:07:15.480Z,29.90
2023-10-15T11:09:44.638Z,29.60
2023-10-15T11:12:12.193Z,29.30
2023-10-15T11:14:41.913Z,29.90
2023-10-15T11:17:17.571Z,29.60
2023-10-15T11:19:50.708Z,30.20
2023-10-15T11:22:27.037Z,30.60
2023-10-15T11:24:57.464Z,30.90
2023-10-15T11:27:24.770Z,31.00
2023-10-15T11:29:51.934Z,31.50
2023-10-15T11:32:19.194Z,31.80
2023-10-15T11:34:46.624Z,31.00
2023-10-15T11:37:15.061Z,30.90
2023-10-15T11:39:49.301Z,30.10
2023-10-15T11:42:20.595Z,29.20
2023-10-15T11:44:55.640Z,28.50
2023-10-15T11:47:27.391Z,28.30
2023-10-15T11:49:55.521Z,29.10
2023-10-15T11:52:25.537Z,29.80
2023-10-15T11:54:53.345Z,30.40
2023-10-15T11:57:28.404Z,30.50
2023-10-15T11:59:58.358Z,31.10
2023-10-15T12:02:28.356Z,30.50
2023-10-15T12:04:59.319Z,31.10
2023-10-15T12:07:30.215Z,31.00
2023-10-15T12:09:59.004Z,31.40
2023-10-15T12:12:27.330Z,31.10
2023-10-15T12:14:54.321Z,29.30
2023-10-15T12:17:21.413Z,29.30
2023-10-15T12:19:52.801Z,30.10
2023-10-15T12:22:25.633Z,30.00
2023-10-15T12:24:52.674Z,30.50
2023-10-15T12:27:19.624Z,30.80
2023-10-15T12:29:46.991Z,30.80
2023-10-15T12:32:14.414Z,30.60
2023-10-15T12:34:41.921Z,31.00
2023-10-15T12:37:09.602Z,29.90
2023-10-15T12:39:42.380Z,28.80
2023-10-15T12:42:12.871Z,28.80
2023-10-15T12:44:45.065Z,29.00
2023-10-15T12:47:13.539Z,30.10
2023-10-15T12:49:41.541Z,30.40
2023-10-15T12:52:09.766Z,30.30
2023-10-15T12:54:39.363Z,29.20
2023-10-15T12:57:06.751Z,29.40
2023-10-15T12:59:37.278Z,29.50
2023-10-15T13:02:05.774Z,30.30
2023-10-15T13:04:33.044Z,29.80
2023-10-15T13:07:00.367Z,28.80
2023-10-15T13:09:27.703Z,29.10
2023-10-15T13:11:55.289Z,29.40
2023-10-15T13:14:22.823Z,29.20
2023-10-15T13:16:51.994Z,30.30
2023-10-15T13:19:20.146Z,31.10
2023-10-15T13:21:47.504Z,31.50
2023-10-15T13:24:14.581Z,31.50
2023-10-15T13:26:43.519Z,30.90
2023-10-15T13:29:10.676Z,31.20
2023-10-15T13:31:38.693Z,30.50
2023-10-15T13:34:11.068Z,31.10
2023-10-15T13:36:39.065Z,30.70
2023-10-15T13:39:09.887Z,29.70
2023-10-15T13:41:37.305Z,29.10
2023-10-15T13:44:05.885Z,29.30
2023-10-15T13:46:33.230Z,30.00
2023-10-15T13:49:00.345Z,29.60
2023-10-15T13:51:28.186Z,28.60
2023-10-15T13:53:58.266Z,28.70
2023-10-15T13:56:25.969Z,28.60
2023-10-15T13:58:52.980Z,28.30
2023-10-15T14:01:20.294Z,28.30
2023-10-15T14:03:47.758Z,28.00
2023-10-15T14:06:16.053Z,27.10
2023-10-15T14:08:43.050Z,26.30
2023-10-15T14:11:11.566Z,26.10
2023-10-15T14:13:39.010Z,26.00
2023-10-15T14:16:06.385Z,26.70
2023-10-15T14:18:35.188Z,26.30
2023-10-15T14:21:02.760Z,26.20
2023-10-15T14:23:29.797Z,26.70
2023-10-15T14:25:57.039Z,26.50
2023-10-15T14:28:25.385Z,26.70
2023-10-15T14:30:53.657Z,28.20
2023-10-15T14:33:20.922Z,28.00
2023-10-15T14:35:49.604Z,27.90
2023-10-15T14:38:16.673Z,27.30
2023-10-15T14:40:46.124Z,27.50
2023-10-15T14:43:13.312Z,27.10
2023-10-15T14:45:40.982Z,26.50
2023-10-15T14:48:09.504Z,26.20
2023-10-15T14:50:39.981Z,26.60
2023-10-15T14:53:07.336Z,27.40
2023-10-15T14:55:35.616Z,27.30
2023-10-15T14:58:02.614Z,27.10
2023-10-15T15:00:29.543Z,27.60
2023-10-15T15:02:57.240Z,27.70
2023-10-15T15:05:24.273Z,27.30
2023-10-15T15:07:51.387Z,26.60
2023-10-15T15:10:20.765Z,26.30
2023-10-15T15:12:47.827Z,26.10
2023-10-15T15:15:15.739Z,26.00
2023-10-15T15:17:43.095Z,26.50
2023-10-15T15:20:12.890Z,26.10
2023-10-15T15:22:42.617Z,26.00
2023-10-15T15:25:10.350Z,26.40
2023-10-15T15:27:37.644Z,26.30
2023-10-15T15:30:10.089Z,26.00
2023-10-15T15:32:38.540Z,25.60
2023-10-15T15:35:09.184Z,25.30
2023-10-15T15:37:37.065Z,25.70
2023-10-15T15:40:12.783Z,25.70
2023-10-15T15:42:39.924Z,25.90
2023-10-15T15:45:09.649Z,26.10
2023-10-15T15:47:37.126Z,26.90
2023-10-15T15:50:04.960Z,26.50
2023-10-15T15:52:32.263Z,26.00
2023-10-15T15:54:59.719Z,26.50
2023-10-15T15:57:26.747Z,26.20
2023-10-15T15:59:53.818Z,26.40
2023-10-15T16:02:20.903Z,26.00
2023-10-15T16:04:48.435Z,26.20
2023-10-15T16:07:15.622Z,26.00
2023-10-15T16:09:42.964Z,26.10
2023-10-15T16:12:10.613Z,26.40
2023-10-15T16:14:37.789Z,26.90
2023-10-15T16:17:04.989Z,26.40
2023-10-15T16:19:32.679Z,26.70
2023-10-15T16:21:59.793Z,27.40
2023-10-15T16:24:26.885Z,27.60
2023-10-15T16:26:54.932Z,27.00
2023-10-15T16:29:22.012Z,27.20
2023-10-15T16:31:49.236Z,26.90
2023-10-15T16:34:16.507Z,27.30
2023-10-15T16:36:43.908Z,27.80
2023-10-15T16:39:18.113Z,27.00
2023-10-15T16:41:45.694Z,26.90
2023-10-15T16:44:12.950Z,27.30
2023-10-15T16:46:40.205Z,26.90
2023-10-15T16:49:07.780Z,27.70
2023-10-15T16:51:34.828Z,27.50
2023-10-15T16:54:02.021Z,26.40
2023-10-15T16:56:29.557Z,26.60
2023-10-15T16:58:56.646Z,27.10
2023-10-15T17:01:23.801Z,26.50
2023-10-15T17:03:52.147Z,26.60
2023-10-15T17:06:19.310Z,25.50
2023-10-15T17:08:48.906Z,25.80
2023-10-15T17:11:16.604Z,25.60
2023-10-15T17:13:43.579Z,25.30
2023-10-15T17:16:10.818Z,25.40
2023-10-15T17:18:38.301Z,25.30
2023-10-15T17:21:05.369Z,25.60
2023-10-15T17:23:32.741Z,26.60
2023-10-15T17:25:59.840Z,27.20
2023-10-15T17:28:27.130Z,26.80
2023-10-15T17:30:54.420Z,27.10
2023-10-15T17:33:21.692Z,27.30
2023-10-15T17:35:48.759Z,27.10
2023-10-15T17:38:16.879Z,27.10
2023-10-15T17:40:44.180Z,27.40
2023-10-15T17:43:11.311Z,27.20
2023-10-15T17:45:39.263Z,27.60
2023-10-15T17:48:07.808Z,27.70
2023-10-15T17:50:35.100Z,26.90
2023-10-15T17:53:06.134Z,26.60
2023-10-15T17:55:33.364Z,27.40
2023-10-15T17:58:03.593Z,26.90
2023-10-15T18:00:32.368Z,26.80
2023-10-15T18:02:59.824Z,26.80
2023-10-15T18:05:27.716Z,26.70
2023-10-15T18:07:54.804Z,26.40
2023-10-15T18:10:23.573Z,26.90
2023-10-15T18:12:50.748Z,27.00
2023-10-15T18:15:18.050Z,27.40
2023-10-15T18:17:45.511Z,27.80
2023-10-15T18:20:18.412Z,27.50
2023-10-15T18:22:49.540Z,26.70
2023-10-15T18:25:16.934Z,27.40
2023-10-15T18:27:44.131Z,28.30
2023-10-15T18:30:11.765Z,28.40
2023-10-15T18:32:38.907Z,28.60
2023-10-15T18:35:06.948Z,27.80
2023-10-15T18:37:34.137Z,27.90
2023-10-15T18:40:01.355Z,27.70
2023-10-15T18:42:28.670Z,26.30
2023-10-15T18:44:55.831Z,26.40
2023-10-15T18:47:23.308Z,26.60
2023-10-15T18:49:51.080Z,27.10
2023-10-15T18:52:18.604Z,27.00
2023-10-15T18:54:45.985Z,27.40
2023-10-15T18:57:13.181Z,27.20
2023-10-15T18:59:42.560Z,26.40
2023-10-15T19:02:11.098Z,26.30
2023-10-15T19:04:38.363Z,26.40
2023-10-15T19:07:06.198Z,26.00
2023-10-15T19:09:34.695Z,26.80
2023-10-15T19:12:02.252Z,27.90
2023-10-15T19:14:29.236Z,28.00
2023-10-15T19:16:56.270Z,27.30
2023-10-15T19:19:23.790Z,26.70
2023-10-15T19:21:50.964Z,25.70
2023-10-15T19:24:18.198Z,25.20
2023-10-15T19:26:45.787Z,25.60
2023-10-15T19:29:14.549Z,26.10
2023-10-15T19:31:41.825Z,26.20
2023-10-15T19:34:09.316Z,25.90
2023-10-15T19:36:36.648Z,26.20
2023-10-15T19:39:05.035Z,26.40
2023-10-15T19:41:32.621Z,26.50
2023-10-15T19:44:00.162Z,26.20
2023-10-15T19:46:28.453Z,26.90
2023-10-15T19:48:55.685Z,26.20
2023-10-15T19:51:24.113Z,25.90
2023-10-15T19:53:53.758Z,26.50
2023-10-15T19:56:20.925Z,26.80
2023-10-15T19:58:48.868Z,26.60
2023-10-15T20:01:16.529Z,27.30
2023-10-15T20:04:02.980Z,28.20
2023-10-15T20:06:33.222Z,28.30
2023-10-15T20:09:01.141Z,28.00
2023-10-15T20:11:28.140Z,27.70
2023-10-15T20:13:55.701Z,26.80
2023-10-15T20:16:23.768Z,26.10
2023-10-15T20:18:51.295Z,26.00
2023-10-15T20:21:18.442Z,27.50
2023-10-15T20:23:45.569Z,26.80
2023-10-15T20:26:13.593Z,27.00
2023-10-15T20:28:40.820Z,27.50
2023-10-15T20:31:10.797Z,27.60
2023-10-15T20:33:37.982Z,27.50
2023-10-15T20:36:06.101Z,28.40
2023-10-15T20:38:34.820Z,29.20
2023-10-15T20:41:01.828Z,28.90
2023-10-15T20:43:28.840Z,27.60
2023-10-15T20:45:56.180Z,27.10
2023-10-15T20:48:23.560Z,27.10
2023-10-15T20:50:50.865Z,27.50
2023-10-15T20:53:17.985Z,27.50
2023-10-15T20:55:45.117Z,28.30
2023-10-15T20:58:12.163Z,28.30
2023-10-15T21:00:39.184Z,28.00
2023-10-15T21:03:09.780Z,27.80
2023-10-15T21:05:36.792Z,27.50
2023-10-15T21:08:07.319Z,27.90
2023-10-15T21:10:37.357Z,28.20
2023-10-15T21:13:04.714Z,28.40
2023-10-15T21:15:32.887Z,28.30
2023-10-15T21:18:00.374Z,28.30
2023-10-15T21:20:28.794Z,28.60
2023-10-15T21:22:56.796Z,28.70
2023-10-15T21:25:23.892Z,28.30
2023-10-15T21:27:52.523Z,28.70
2023-10-15T21:30:22.571Z,28.40
2023-10-15T21:32:50.242Z,28.10
2023-10-15T21:35:17.281Z,28.40
2023-10-15T21:37:44.636Z,29.00
2023-10-15T21:40:16.402Z,28.80
2023-10-15T21:42:44.461Z,29.00
2023-10-15T21:45:14.808Z,29.00
2023-10-15T21:47:43.807Z,30.00
2023-10-15T21:50:14.649Z,30.50
2023-10-15T21:52:42.607Z,29.90
2023-10-15T21:55:12.125Z,30.20
2023-10-15T21:57:41.949Z,29.80
2023-10-15T22:00:12.768Z,29.60
2023-10-15T22:02:41.454Z,29.40
2023-10-15T22:05:13.618Z,29.50
2023-10-15T22:07:40.585Z,29.50
2023-10-15T22:10:08.899Z,29.10
2023-10-15T22:12:36.213Z,29.20
2023-10-15T22:15:08.685Z,28.80
2023-10-15T22:17:35.734Z,28.40
2023-10-15T22:20:27.994Z,28.10
2023-10-15T22:23:01.570Z,28.30
2023-10-15T22:25:28.621Z,28.60
2023-10-15T22:28:02.911Z,28.90
2023-10-15T22:30:39.459Z,29.20
2023-10-15T22:33:09.423Z,28.70
2023-10-15T22:35:39.355Z,28.40
2023-10-15T22:38:06.315Z,27.80
2023-10-15T22:40:34.498Z,27.80
2023-10-15T22:43:01.544Z,27.90
2023-10-15T22:45:30.577Z,28.80
2023-10-15T22:48:00.273Z,28.50
2023-10-15T22:50:27.331Z,28.60
2023-10-15T22:52:54.349Z,29.00
2023-10-15T22:55:22.446Z,28.50
2023-10-15T22:57:49.437Z,28.60
2023-10-15T23:00:23.629Z,28.30
2023-10-15T23:02:52.366Z,28.60
2023-10-15T23:05:23.118Z,29.00
2023-10-15T23:07:50.720Z,28.00
2023-10-15T23:10:21.371Z,28.00
2023-10-15T23:12:48.767Z,27.80
2023-10-15T23:15:19.034Z,27.90
2023-10-15T23:17:48.126Z,28.70
2023-10-15T23:20:35.600Z,28.30
2023-10-15T23:23:04.386Z,27.30
2023-10-15T23:25:31.545Z,27.10
2023-10-15T23:27:58.584Z,26.80
2023-10-15T23:30:26.101Z,27.20
2023-10-15T23:32:54.492Z,27.40
2023-10-15T23:35:21.608Z,27.30
2023-10-15T23:37:50.241Z,26.80
2023-10-15T23:40:22.577Z,27.10
2023-10-15T23:42:50.934Z,27.60
2023-10-15T23:45:28.327Z,27.50
2023-10-15T23:48:17.873Z,27.70
2023-10-15T23:50:46.374Z,28.10
2023-10-15T23:53:20.807Z,28.70
2023-10-15T23:55:49.811Z,28.00
2023-10-15T23:58:18.695Z,26.90
